^^
Marion, Virginia Banner
 

Adwolf, VA. Station Historical Data
[ Providing Data Since 6/07/2007 ]
Station Historical Data
Daily Summary for August 14, 2017 Units:  Both    English   Metric
« Previous Day
Next Day »
Daily Weekly Monthly Yearly Custom
  High: Low: Average:
Temperature: 88.2 °F /  31.2 °C 68.3 °F /  20.2 °C 75.7 °F /  24.3 °C
Dew Point: 72.0 °F /  22.2 °C 65.3 °F /  18.5 °C 68.7 °F /  20.4 °C
Humidity: 92% 53% 80%
Wind Speed: 11.5mph /  18.5km/h - 2.6mph /  4.2km/h
Wind Gust: 11.5mph /  18.5km/h - -
Wind- - East
Pressure: 30.08 in /  1018.5 hPa 29.89 in /  1012.1 hPa -
Precipitation: 0.04 in /  1.02 mm    
Historical Graphs
 
 
Tabular Data for August 14, 2017
Time Temperature Dew Point Pressure Wind Wind Speed Wind Gust Humidity Rainfall Rate (Hourly) solar Conditions
00:02 70.5 °F /  21.4 °C 67.4 °F /  19.7 °C 30.08in /  1018.5hPa NNE 1.2mph /  1.9km/h 1.2mph /  1.9km/h 90% 0.00in /  0mm WeatherDisplay:10.37 W/m2 OVC
00:07 70.5 °F /  21.4 °C 67.4 °F /  19.7 °C 30.08in /  1018.5hPa Calm     90% 0.00in /  0mm WeatherDisplay:10.37 W/m2 OVC
00:12 70.4 °F /  21.3 °C 67.3 °F /  19.6 °C 30.08in /  1018.5hPa Calm     90% 0.00in /  0mm WeatherDisplay:10.37 W/m2 OVC
00:17 70.3 °F /  21.3 °C 67.2 °F /  19.6 °C 30.08in /  1018.5hPa Calm     90% 0.00in /  0mm WeatherDisplay:10.37 W/m2 OVC
00:22 70.4 °F /  21.3 °C 67.3 °F /  19.6 °C 30.08in /  1018.5hPa NNE 1.2mph /  1.9km/h 1.2mph /  1.9km/h 90% 0.00in /  0mm WeatherDisplay:10.37 W/m2 OVC
00:27 70.5 °F /  21.4 °C 67.4 °F /  19.7 °C 30.08in /  1018.5hPa NNE 2.3mph /  3.7km/h 2.3mph /  3.7km/h 90% 0.00in /  0mm WeatherDisplay:10.37 W/m2 OVC
00:32 70.4 °F /  21.3 °C 67.3 °F /  19.6 °C 30.08in /  1018.5hPa NNE 1.2mph /  1.9km/h 1.2mph /  1.9km/h 90% 0.00in /  0mm WeatherDisplay:10.37 W/m2 OVC
00:37 70.4 °F /  21.3 °C 67.3 °F /  19.6 °C 30.08in /  1018.5hPa NNE 1.2mph /  1.9km/h   90% 0.00in /  0mm WeatherDisplay:10.37 W/m2 OVC
00:42 70.3 °F /  21.3 °C 67.2 °F /  19.6 °C 30.08in /  1018.5hPa NNE 2.0mph /  3.2km/h 2.0mph /  3.2km/h 90% 0.00in /  0mm WeatherDisplay:10.37 W/m2 OVC
00:47 70.3 °F /  21.3 °C 67.2 °F /  19.6 °C 30.08in /  1018.5hPa NNE 2.3mph /  3.7km/h 2.3mph /  3.7km/h 90% 0.00in /  0mm WeatherDisplay:10.37 W/m2 OVC
00:52 70.3 °F /  21.3 °C 67.2 °F /  19.6 °C 30.08in /  1018.5hPa Calm     90% 0.00in /  0mm WeatherDisplay:10.37 W/m2 OVC
00:57 70.2 °F /  21.2 °C 66.8 °F /  19.3 °C 30.08in /  1018.5hPa Calm     89% 0.00in /  0mm WeatherDisplay:10.37 W/m2 OVC
01:02 70.2 °F /  21.2 °C 66.8 °F /  19.3 °C 30.08in /  1018.5hPa NNE 2.3mph /  3.7km/h 2.3mph /  3.7km/h 89% 0.00in /  0mm WeatherDisplay:10.37 W/m2 OVC
01:07 70.2 °F /  21.2 °C 66.8 °F /  19.3 °C 30.08in /  1018.5hPa NNE 2.3mph /  3.7km/h 2.3mph /  3.7km/h 89% 0.00in /  0mm WeatherDisplay:10.37 W/m2 OVC
01:08 70.2 °F /  21.2 °C 66.8 °F /  19.3 °C 30.08in /  1018.5hPa NNE 2.3mph /  3.7km/h 2.3mph /  3.7km/h 89% 0.00in /  0mm WeatherDisplay:10.37 W/m2 OVC
01:13 70.1 °F /  21.2 °C 66.7 °F /  19.3 °C 30.07in /  1018.2hPa NNE 1.2mph /  1.9km/h 1.2mph /  1.9km/h 89% 0.00in /  0mm WeatherDisplay:10.37 W/m2 OVC
01:18 70.1 °F /  21.2 °C 66.7 °F /  19.3 °C 30.08in /  1018.5hPa NNE 1.2mph /  1.9km/h 1.2mph /  1.9km/h 89% 0.00in /  0mm WeatherDisplay:10.37 W/m2 OVC
01:23 70.0 °F /  21.1 °C 66.2 °F /  19 °C 30.07in /  1018.2hPa Calm     88% 0.00in /  0mm WeatherDisplay:10.37 W/m2 OVC
01:28 69.9 °F /  21.1 °C 66.1 °F /  18.9 °C 30.08in /  1018.5hPa Calm   0.1mph /  0.2km/h 88% 0.00in /  0mm WeatherDisplay:10.37 W/m2 OVC
01:33 69.9 °F /  21.1 °C 66.1 °F /  18.9 °C 30.07in /  1018.2hPa Calm   0.1mph /  0.2km/h 88% 0.00in /  0mm WeatherDisplay:10.37 W/m2 OVC
01:38 69.8 °F /  21 °C 66.0 °F /  18.9 °C 30.07in /  1018.2hPa Calm     88% 0.00in /  0mm WeatherDisplay:10.37 W/m2 OVC
01:43 69.7 °F /  20.9 °C 65.9 °F /  18.8 °C 30.07in /  1018.2hPa Calm     88% 0.00in /  0mm WeatherDisplay:10.37 W/m2 OVC
01:48 69.6 °F /  20.9 °C 66.2 °F /  19 °C 30.07in /  1018.2hPa Calm     89% 0.00in /  0mm WeatherDisplay:10.37 W/m2 OVC
01:53 69.6 °F /  20.9 °C 66.2 °F /  19 °C 30.07in /  1018.2hPa Calm     89% 0.00in /  0mm WeatherDisplay:10.37 W/m2 OVC
01:58 69.4 °F /  20.8 °C 66.0 °F /  18.9 °C 30.07in /  1018.2hPa NNE 1.2mph /  1.9km/h   89% 0.00in /  0mm WeatherDisplay:10.37 W/m2 OVC
02:03 69.3 °F /  20.7 °C 65.9 °F /  18.8 °C 30.07in /  1018.2hPa Calm     89% 0.00in /  0mm WeatherDisplay:10.37 W/m2 OVC
02:08 69.1 °F /  20.6 °C 65.7 °F /  18.7 °C 30.07in /  1018.2hPa Calm     89% 0.00in /  0mm WeatherDisplay:10.37 W/m2 OVC
02:13 68.9 °F /  20.5 °C 65.5 °F /  18.6 °C 30.06in /  1017.8hPa Calm     89% 0.00in /  0mm WeatherDisplay:10.37 W/m2 OVC
02:18 68.8 °F /  20.4 °C 65.4 °F /  18.6 °C 30.06in /  1017.8hPa Calm     89% 0.00in /  0mm WeatherDisplay:10.37 W/m2 OVC
02:23 68.6 °F /  20.3 °C 65.5 °F /  18.6 °C 30.06in /  1017.8hPa Calm     90% 0.00in /  0mm WeatherDisplay:10.37 W/m2 OVC
02:28 68.5 °F /  20.3 °C 65.4 °F /  18.6 °C 30.06in /  1017.8hPa NNE 1.2mph /  1.9km/h 1.2mph /  1.9km/h 90% 0.00in /  0mm WeatherDisplay:10.37 W/m2 OVC
02:33 68.4 °F /  20.2 °C 65.3 °F /  18.5 °C 30.06in /  1017.8hPa Calm     90% 0.00in /  0mm WeatherDisplay:10.37 W/m2 OVC
02:38 68.4 °F /  20.2 °C 65.6 °F /  18.7 °C 30.06in /  1017.8hPa Calm     91% 0.00in /  0mm WeatherDisplay:10.37 W/m2 OVC
02:43 68.3 °F /  20.2 °C 65.5 °F /  18.6 °C 30.06in /  1017.8hPa NNE 1.2mph /  1.9km/h 1.2mph /  1.9km/h 91% 0.00in /  0mm WeatherDisplay:10.37 W/m2 OVC
02:48 68.5 °F /  20.3 °C 65.4 °F /  18.6 °C 30.06in /  1017.8hPa NNE 2.3mph /  3.7km/h 2.3mph /  3.7km/h 90% 0.00in /  0mm WeatherDisplay:10.37 W/m2 OVC
02:53 68.8 °F /  20.4 °C 65.7 °F /  18.7 °C 30.06in /  1017.8hPa NNE 1.2mph /  1.9km/h   90% 0.00in /  0mm WeatherDisplay:10.37 W/m2 OVC
02:58 69.0 °F /  20.6 °C 65.6 °F /  18.7 °C 30.06in /  1017.8hPa NNE 1.2mph /  1.9km/h 1.2mph /  1.9km/h 89% 0.00in /  0mm WeatherDisplay:10.37 W/m2 OVC
03:03 69.4 °F /  20.8 °C 66.0 °F /  18.9 °C 30.05in /  1017.5hPa NNE 3.5mph /  5.6km/h 3.5mph /  5.6km/h 89% 0.00in /  0mm WeatherDisplay:10.37 W/m2 OVC
03:08 69.9 °F /  21.1 °C 66.1 °F /  18.9 °C 30.06in /  1017.8hPa NNE 3.5mph /  5.6km/h 3.5mph /  5.6km/h 88% 0.00in /  0mm WeatherDisplay:10.37 W/m2 OVC
03:13 70.3 °F /  21.3 °C 66.2 °F /  19 °C 30.05in /  1017.5hPa NNE 3.5mph /  5.6km/h 3.5mph /  5.6km/h 87% 0.00in /  0mm WeatherDisplay:10.37 W/m2 OVC
03:18 70.7 °F /  21.5 °C 66.3 °F /  19.1 °C 30.05in /  1017.5hPa NE 3.5mph /  5.6km/h 3.5mph /  5.6km/h 86% 0.00in /  0mm WeatherDisplay:10.37 W/m2 OVC
03:23 70.8 °F /  21.6 °C 66.4 °F /  19.1 °C 30.05in /  1017.5hPa ENE 3.5mph /  5.6km/h 3.5mph /  5.6km/h 86% 0.00in /  0mm WeatherDisplay:10.37 W/m2 OVC
03:28 71.0 °F /  21.7 °C 66.6 °F /  19.2 °C 30.05in /  1017.5hPa ENE 3.5mph /  5.6km/h 3.5mph /  5.6km/h 86% 0.00in /  0mm WeatherDisplay:10.37 W/m2 OVC
03:33 71.1 °F /  21.7 °C 66.3 °F /  19.1 °C 30.05in /  1017.5hPa ENE 2.3mph /  3.7km/h 2.3mph /  3.7km/h 85% 0.00in /  0mm WeatherDisplay:10.37 W/m2 OVC
03:38 71.2 °F /  21.8 °C 66.4 °F /  19.1 °C 30.06in /  1017.8hPa NNE 4.6mph /  7.4km/h 4.6mph /  7.4km/h 85% 0.00in /  0mm WeatherDisplay:10.37 W/m2 OVC
03:43 71.2 °F /  21.8 °C 66.4 °F /  19.1 °C 30.05in /  1017.5hPa NNE 3.5mph /  5.6km/h 3.5mph /  5.6km/h 85% 0.00in /  0mm WeatherDisplay:10.37 W/m2 OVC
03:48 71.2 °F /  21.8 °C 66.4 °F /  19.1 °C 30.05in /  1017.5hPa NNE 3.5mph /  5.6km/h 3.5mph /  5.6km/h 85% 0.00in /  0mm WeatherDisplay:10.37 W/m2 OVC
03:53 71.2 °F /  21.8 °C 66.4 °F /  19.1 °C 30.05in /  1017.5hPa NNE 2.3mph /  3.7km/h 2.3mph /  3.7km/h 85% 0.00in /  0mm WeatherDisplay:10.37 W/m2 OVC
03:58 71.2 °F /  21.8 °C 66.8 °F /  19.3 °C 30.05in /  1017.5hPa NNE 4.6mph /  7.4km/h 4.6mph /  7.4km/h 86% 0.00in /  0mm WeatherDisplay:10.37 W/m2 OVC
04:03 71.1 °F /  21.7 °C 66.7 °F /  19.3 °C 30.05in /  1017.5hPa NNE 2.0mph /  3.2km/h 2.0mph /  3.2km/h 86% 0.00in /  0mm WeatherDisplay:10.37 W/m2 OVC
04:08 71.1 °F /  21.7 °C 66.7 °F /  19.3 °C 30.05in /  1017.5hPa NNE 3.5mph /  5.6km/h 3.5mph /  5.6km/h 86% 0.00in /  0mm WeatherDisplay:10.37 W/m2 OVC
04:13 71.1 °F /  21.7 °C 66.7 °F /  19.3 °C 30.05in /  1017.5hPa NNE 2.3mph /  3.7km/h 2.3mph /  3.7km/h 86% 0.00in /  0mm WeatherDisplay:10.37 W/m2 OVC
04:18 71.1 °F /  21.7 °C 66.7 °F /  19.3 °C 30.05in /  1017.5hPa East 3.5mph /  5.6km/h 3.5mph /  5.6km/h 86% 0.00in /  0mm WeatherDisplay:10.37 W/m2 OVC
04:23 71.1 °F /  21.7 °C 66.3 °F /  19.1 °C 30.05in /  1017.5hPa North 3.5mph /  5.6km/h 3.5mph /  5.6km/h 85% 0.00in /  0mm WeatherDisplay:10.37 W/m2 OVC
04:28 71.2 °F /  21.8 °C 66.4 °F /  19.1 °C 30.04in /  1017.2hPa NNE 4.6mph /  7.4km/h 4.6mph /  7.4km/h 85% 0.00in /  0mm WeatherDisplay:10.37 W/m2 OVC
04:33 71.2 °F /  21.8 °C 66.4 °F /  19.1 °C 30.04in /  1017.2hPa NNE 4.0mph /  6.4km/h 4.0mph /  6.4km/h 85% 0.00in /  0mm WeatherDisplay:10.37 W/m2 OVC
04:38 71.1 °F /  21.7 °C 66.7 °F /  19.3 °C 30.04in /  1017.2hPa NNE 2.3mph /  3.7km/h 2.3mph /  3.7km/h 86% 0.00in /  0mm WeatherDisplay:10.37 W/m2 OVC
04:43 71.0 °F /  21.7 °C 66.6 °F /  19.2 °C 30.04in /  1017.2hPa NNE 3.5mph /  5.6km/h 3.5mph /  5.6km/h 86% 0.00in /  0mm WeatherDisplay:10.37 W/m2 OVC
04:48 71.0 °F /  21.7 °C 66.6 °F /  19.2 °C 30.05in /  1017.5hPa NNE 3.5mph /  5.6km/h 3.5mph /  5.6km/h 86% 0.00in /  0mm WeatherDisplay:10.37 W/m2 OVC
04:53 70.9 °F /  21.6 °C 66.5 °F /  19.2 °C 30.05in /  1017.5hPa NNE 5.8mph /  9.3km/h 5.8mph /  9.3km/h 86% 0.00in /  0mm WeatherDisplay:10.37 W/m2 OVC
04:58 70.8 °F /  21.6 °C 66.4 °F /  19.1 °C 30.05in /  1017.5hPa NNE 6.9mph /  11.1km/h 6.9mph /  11.1km/h 86% 0.00in /  0mm WeatherDisplay:10.37 W/m2 OVC
05:03 70.7 °F /  21.5 °C 66.3 °F /  19.1 °C 30.05in /  1017.5hPa NE 4.6mph /  7.4km/h 4.6mph /  7.4km/h 86% 0.00in /  0mm WeatherDisplay:10.37 W/m2 OVC
05:08 70.6 °F /  21.4 °C 66.5 °F /  19.2 °C 30.05in /  1017.5hPa NNE 3.5mph /  5.6km/h 3.5mph /  5.6km/h 87% 0.00in /  0mm WeatherDisplay:10.37 W/m2 OVC
05:13 70.5 °F /  21.4 °C 66.4 °F /  19.1 °C 30.05in /  1017.5hPa North 5.0mph /  8km/h 5.0mph /  8km/h 87% 0.00in /  0mm WeatherDisplay:10.37 W/m2 OVC
05:18 70.4 °F /  21.3 °C 66.3 °F /  19.1 °C 30.05in /  1017.5hPa NNE 3.5mph /  5.6km/h 3.5mph /  5.6km/h 87% 0.00in /  0mm WeatherDisplay:10.37 W/m2 OVC
05:23 70.3 °F /  21.3 °C 66.5 °F /  19.2 °C 30.05in /  1017.5hPa Calm     88% 0.00in /  0mm WeatherDisplay:10.37 W/m2 OVC
05:28 70.2 °F /  21.2 °C 66.4 °F /  19.1 °C 30.06in /  1017.8hPa Calm     88% 0.00in /  0mm WeatherDisplay:10.37 W/m2 OVC
05:33 70.1 °F /  21.2 °C 66.3 °F /  19.1 °C 30.05in /  1017.5hPa NNE 3.5mph /  5.6km/h 3.5mph /  5.6km/h 88% 0.00in /  0mm WeatherDisplay:10.37 W/m2 OVC
05:38 70.0 °F /  21.1 °C 65.9 °F /  18.8 °C 30.06in /  1017.8hPa NNE 3.5mph /  5.6km/h 3.5mph /  5.6km/h 87% 0.00in /  0mm WeatherDisplay:10.37 W/m2 OVC
05:43 70.0 °F /  21.1 °C 66.2 °F /  19 °C 30.06in /  1017.8hPa NNE 3.5mph /  5.6km/h 3.5mph /  5.6km/h 88% 0.00in /  0mm WeatherDisplay:10.37 W/m2 OVC
05:48 69.9 °F /  21.1 °C 66.1 °F /  18.9 °C 30.06in /  1017.8hPa NNE 1.2mph /  1.9km/h 1.2mph /  1.9km/h 88% 0.00in /  0mm WeatherDisplay:10.37 W/m2 OVC
05:53 69.9 °F /  21.1 °C 66.1 °F /  18.9 °C 30.06in /  1017.8hPa NNE 2.3mph /  3.7km/h 2.3mph /  3.7km/h 88% 0.00in /  0mm WeatherDisplay:10.37 W/m2 OVC
05:58 69.8 °F /  21 °C 66.0 °F /  18.9 °C 30.06in /  1017.8hPa NNE 1.2mph /  1.9km/h 1.2mph /  1.9km/h 88% 0.00in /  0mm WeatherDisplay:10.37 W/m2 OVC
06:03 69.7 °F /  20.9 °C 65.9 °F /  18.8 °C 30.06in /  1017.8hPa Calm     88% 0.00in /  0mm WeatherDisplay:10.37 W/m2 OVC
06:08 69.6 °F /  20.9 °C 65.8 °F /  18.8 °C 30.06in /  1017.8hPa Calm     88% 0.00in /  0mm WeatherDisplay:10.37 W/m2 OVC
06:13 69.6 °F /  20.9 °C 65.8 °F /  18.8 °C 30.07in /  1018.2hPa NNE 3.5mph /  5.6km/h 3.5mph /  5.6km/h 88% 0.00in /  0mm WeatherDisplay:10.37 W/m2 OVC
06:18 69.5 °F /  20.8 °C 65.7 °F /  18.7 °C 30.07in /  1018.2hPa NNE 1.2mph /  1.9km/h   88% 0.00in /  0mm WeatherDisplay:10.37 W/m2 OVC
06:23 69.5 °F /  20.8 °C 65.7 °F /  18.7 °C 30.07in /  1018.2hPa NNE 1.2mph /  1.9km/h 1.2mph /  1.9km/h 88% 0.00in /  0mm WeatherDisplay:10.37 W/m2 OVC
06:28 69.4 °F /  20.8 °C 65.7 °F /  18.7 °C 30.07in /  1018.2hPa NNE 1.2mph /  1.9km/h 1.2mph /  1.9km/h 88% 0.00in /  0mm WeatherDisplay:10.37 W/m2 OVC
06:33 69.5 °F /  20.8 °C 65.7 °F /  18.7 °C 30.07in /  1018.2hPa NNE 1.2mph /  1.9km/h 1.2mph /  1.9km/h 88% 0.00in /  0mm WeatherDisplay:10.37 W/m2 OVC
06:38 69.5 °F /  20.8 °C 65.7 °F /  18.7 °C 30.07in /  1018.2hPa NNE 1.2mph /  1.9km/h 1.2mph /  1.9km/h 88% 0.00in /  0mm WeatherDisplay:10.37 W/m2 OVC
06:39 69.5 °F /  20.8 °C 65.7 °F /  18.7 °C 30.07in /  1018.2hPa NNE 1.2mph /  1.9km/h 1.2mph /  1.9km/h 88% 0.00in /  0mm WeatherDisplay:10.37 W/m2 OVC
06:44 69.5 °F /  20.8 °C 65.7 °F /  18.7 °C 30.07in /  1018.2hPa NNE 2.3mph /  3.7km/h 2.3mph /  3.7km/h 88% 0.00in /  0mm WeatherDisplay:10.37 W/m2 OVC
06:49 69.4 °F /  20.8 °C 65.7 °F /  18.7 °C 30.07in /  1018.2hPa NNE 2.3mph /  3.7km/h 2.3mph /  3.7km/h 88% 0.00in /  0mm WeatherDisplay:10.37 W/m2 OVC
06:54 69.4 °F /  20.8 °C 65.7 °F /  18.7 °C 30.07in /  1018.2hPa NNE 2.3mph /  3.7km/h 2.3mph /  3.7km/h 88% 0.00in /  0mm WeatherDisplay:10.37 W/m2 OVC
06:59 69.4 °F /  20.8 °C 65.7 °F /  18.7 °C 30.07in /  1018.2hPa NNE 3.5mph /  5.6km/h 3.5mph /  5.6km/h 88% 0.00in /  0mm WeatherDisplay:10.37 W/m2 OVC
07:04 69.4 °F /  20.8 °C 65.7 °F /  18.7 °C 30.07in /  1018.2hPa NNE 1.2mph /  1.9km/h 1.2mph /  1.9km/h 88% 0.00in /  0mm WeatherDisplay:10.37 W/m2 OVC
07:09 69.4 °F /  20.8 °C 66.0 °F /  18.9 °C 30.07in /  1018.2hPa Calm     89% 0.00in /  0mm WeatherDisplay:10.37 W/m2 OVC
07:14 69.4 °F /  20.8 °C 66.0 °F /  18.9 °C 30.07in /  1018.2hPa Calm     89% 0.00in /  0mm WeatherDisplay:10.37 W/m2 OVC
07:19 69.3 °F /  20.7 °C 65.9 °F /  18.8 °C 30.07in /  1018.2hPa Calm     89% 0.00in /  0mm WeatherDisplay:10.37 W/m2 OVC
07:24 69.3 °F /  20.7 °C 65.9 °F /  18.8 °C 30.07in /  1018.2hPa Calm     89% 0.00in /  0mm WeatherDisplay:10.37 W/m2 OVC
07:29 69.3 °F /  20.7 °C 65.9 °F /  18.8 °C 30.08in /  1018.5hPa Calm     89% 0.00in /  0mm WeatherDisplay:10.37 W/m2 OVC
07:34 69.3 °F /  20.7 °C 65.9 °F /  18.8 °C 30.07in /  1018.2hPa Calm     89% 0.00in /  0mm WeatherDisplay:10.37 W/m2 OVC
07:39 69.4 °F /  20.8 °C 66.0 °F /  18.9 °C 30.07in /  1018.2hPa NNE 1.2mph /  1.9km/h 1.2mph /  1.9km/h 89% 0.00in /  0mm WeatherDisplay:10.37 W/m2 OVC
07:44 69.5 °F /  20.8 °C 66.1 °F /  18.9 °C 30.07in /  1018.2hPa NNE 2.3mph /  3.7km/h 2.3mph /  3.7km/h 89% 0.00in /  0mm WeatherDisplay:10.37 W/m2 OVC
07:49 69.6 °F /  20.9 °C 66.2 °F /  19 °C 30.07in /  1018.2hPa NNE 2.3mph /  3.7km/h 2.3mph /  3.7km/h 89% 0.00in /  0mm WeatherDisplay:10.37 W/m2 OVC
07:54 69.7 °F /  20.9 °C 66.3 °F /  19.1 °C 30.07in /  1018.2hPa NNE 3.5mph /  5.6km/h 3.5mph /  5.6km/h 89% 0.00in /  0mm WeatherDisplay:10.37 W/m2 OVC
07:59 69.9 °F /  21.1 °C 66.5 °F /  19.2 °C 30.07in /  1018.2hPa NNE 2.3mph /  3.7km/h 2.3mph /  3.7km/h 89% 0.00in /  0mm WeatherDisplay:10.37 W/m2 OVC
08:04 70.1 °F /  21.2 °C 66.3 °F /  19.1 °C 30.07in /  1018.2hPa East 3.5mph /  5.6km/h 3.5mph /  5.6km/h 88% 0.00in /  0mm WeatherDisplay:10.37 W/m2 OVC
08:09 70.3 °F /  21.3 °C 66.5 °F /  19.2 °C 30.07in /  1018.2hPa NNE 4.6mph /  7.4km/h 4.6mph /  7.4km/h 88% 0.00in /  0mm WeatherDisplay:10.37 W/m2 OVC
08:14 70.5 °F /  21.4 °C 67.1 °F /  19.5 °C 30.07in /  1018.2hPa NE 3.5mph /  5.6km/h 3.5mph /  5.6km/h 89% 0.00in /  0mm WeatherDisplay:10.37 W/m2 OVC
08:19 70.6 °F /  21.4 °C 66.8 °F /  19.3 °C 30.07in /  1018.2hPa NNE 2.3mph /  3.7km/h 2.3mph /  3.7km/h 88% 0.00in /  0mm WeatherDisplay:10.37 W/m2 OVC
08:24 70.8 °F /  21.6 °C 67.0 °F /  19.4 °C 30.07in /  1018.2hPa NNE 3.5mph /  5.6km/h 3.5mph /  5.6km/h 88% 0.00in /  0mm WeatherDisplay:10.37 W/m2 OVC
08:29 71.0 °F /  21.7 °C 66.9 °F /  19.4 °C 30.07in /  1018.2hPa NNE 4.6mph /  7.4km/h 4.6mph /  7.4km/h 87% 0.00in /  0mm WeatherDisplay:10.37 W/m2 OVC
08:34 71.0 °F /  21.7 °C 66.9 °F /  19.4 °C 30.06in /  1017.8hPa NNE 3.5mph /  5.6km/h 3.5mph /  5.6km/h 87% 0.00in /  0mm WeatherDisplay:10.37 W/m2 OVC
08:39 71.2 °F /  21.8 °C 67.1 °F /  19.5 °C 30.07in /  1018.2hPa NNE 3.5mph /  5.6km/h 3.5mph /  5.6km/h 87% 0.00in /  0mm WeatherDisplay:10.37 W/m2 OVC
08:44 71.4 °F /  21.9 °C 67.3 °F /  19.6 °C 30.07in /  1018.2hPa NNE 3.5mph /  5.6km/h 3.5mph /  5.6km/h 87% 0.00in /  0mm WeatherDisplay:10.37 W/m2 OVC
08:49 71.5 °F /  21.9 °C 67.4 °F /  19.7 °C 30.07in /  1018.2hPa NNE 4.6mph /  7.4km/h 4.6mph /  7.4km/h 87% 0.00in /  0mm WeatherDisplay:10.37 W/m2 OVC
08:54 71.6 °F /  22 °C 67.1 °F /  19.5 °C 30.07in /  1018.2hPa NNE 3.5mph /  5.6km/h 3.5mph /  5.6km/h 86% 0.00in /  0mm WeatherDisplay:10.37 W/m2 OVC
08:59 71.9 °F /  22.2 °C 67.4 °F /  19.7 °C 30.07in /  1018.2hPa NNE 3.5mph /  5.6km/h 3.5mph /  5.6km/h 86% 0.00in /  0mm WeatherDisplay:10.37 W/m2 OVC
09:04 72.1 °F /  22.3 °C 67.6 °F /  19.8 °C 30.07in /  1018.2hPa NNE 4.0mph /  6.4km/h 4.0mph /  6.4km/h 86% 0.00in /  0mm WeatherDisplay:10.37 W/m2 OVC
09:09 72.2 °F /  22.3 °C 67.7 °F /  19.8 °C 30.07in /  1018.2hPa NNE 4.0mph /  6.4km/h 4.0mph /  6.4km/h 86% 0.00in /  0mm WeatherDisplay:10.37 W/m2 OVC
09:14 72.4 °F /  22.4 °C 67.6 °F /  19.8 °C 30.07in /  1018.2hPa NE 5.8mph /  9.3km/h 5.8mph /  9.3km/h 85% 0.00in /  0mm WeatherDisplay:10.37 W/m2 OVC
09:19 72.5 °F /  22.5 °C 68.0 °F /  20 °C 30.07in /  1018.2hPa NE 5.8mph /  9.3km/h 5.8mph /  9.3km/h 86% 0.00in /  0mm WeatherDisplay:10.37 W/m2 OVC
09:24 72.8 °F /  22.7 °C 68.0 °F /  20 °C 30.07in /  1018.2hPa NNE 4.6mph /  7.4km/h 4.6mph /  7.4km/h 85% 0.00in /  0mm WeatherDisplay:10.37 W/m2 OVC
09:29 73.1 °F /  22.8 °C 68.3 °F /  20.2 °C 30.07in /  1018.2hPa NNE 4.6mph /  7.4km/h 4.6mph /  7.4km/h 85% 0.00in /  0mm WeatherDisplay:10.37 W/m2 OVC
09:34 73.4 °F /  23 °C 68.6 °F /  20.3 °C 30.07in /  1018.2hPa NNE 3.5mph /  5.6km/h 3.5mph /  5.6km/h 85% 0.00in /  0mm WeatherDisplay:10.37 W/m2 OVC
09:39 73.8 °F /  23.2 °C 68.6 °F /  20.3 °C 30.07in /  1018.2hPa East 3.5mph /  5.6km/h 3.5mph /  5.6km/h 84% 0.00in /  0mm WeatherDisplay:10.37 W/m2 OVC
09:44 74.1 °F /  23.4 °C 68.6 °F /  20.3 °C 30.07in /  1018.2hPa ENE 3.5mph /  5.6km/h 3.5mph /  5.6km/h 83% 0.00in /  0mm WeatherDisplay:10.37 W/m2 OVC
09:49 74.5 °F /  23.6 °C 69.0 °F /  20.6 °C 30.07in /  1018.2hPa NNE 3.5mph /  5.6km/h 3.5mph /  5.6km/h 83% 0.00in /  0mm WeatherDisplay:10.37 W/m2 OVC
09:54 74.6 °F /  23.7 °C 68.7 °F /  20.4 °C 30.07in /  1018.2hPa NNE 3.5mph /  5.6km/h 3.5mph /  5.6km/h 82% 0.00in /  0mm WeatherDisplay:10.37 W/m2 OVC
09:59 74.5 °F /  23.6 °C 68.6 °F /  20.3 °C 30.07in /  1018.2hPa North 4.6mph /  7.4km/h 4.6mph /  7.4km/h 82% 0.00in /  0mm WeatherDisplay:10.37 W/m2 OVC
10:04 74.4 °F /  23.6 °C 68.9 °F /  20.5 °C 30.07in /  1018.2hPa NNE 3.5mph /  5.6km/h 3.5mph /  5.6km/h 83% 0.00in /  0mm WeatherDisplay:10.37 W/m2 OVC
10:09 74.5 °F /  23.6 °C 69.0 °F /  20.6 °C 30.07in /  1018.2hPa NNE 4.6mph /  7.4km/h 4.6mph /  7.4km/h 83% 0.00in /  0mm WeatherDisplay:10.37 W/m2 OVC
10:14 74.7 °F /  23.7 °C 69.2 °F /  20.7 °C 30.07in /  1018.2hPa NNE 3.5mph /  5.6km/h 3.5mph /  5.6km/h 83% 0.00in /  0mm WeatherDisplay:10.37 W/m2 OVC
10:19 75.0 °F /  23.9 °C 69.1 °F /  20.6 °C 30.07in /  1018.2hPa NNE 2.3mph /  3.7km/h 2.3mph /  3.7km/h 82% 0.00in /  0mm WeatherDisplay:10.37 W/m2 OVC
10:24 75.7 °F /  24.3 °C 69.4 °F /  20.8 °C 30.07in /  1018.2hPa NNE 2.3mph /  3.7km/h 2.3mph /  3.7km/h 81% 0.00in /  0mm WeatherDisplay:10.37 W/m2 OVC
10:27 75.9 °F /  24.4 °C 69.6 °F /  20.9 °C 30.07in /  1018.2hPa NNE 3.5mph /  5.6km/h 3.5mph /  5.6km/h 81% 0.00in /  0mm WeatherDisplay:10.37 W/m2 OVC
10:32 76.0 °F /  24.4 °C 69.3 °F /  20.7 °C 30.07in /  1018.2hPa NNE 2.3mph /  3.7km/h   80% 0.00in /  0mm WeatherDisplay:10.37 W/m2 OVC
10:37 76.5 °F /  24.7 °C 69.8 °F /  21 °C 30.07in /  1018.2hPa NNE 3.5mph /  5.6km/h 3.5mph /  5.6km/h 80% 0.00in /  0mm WeatherDisplay:10.37 W/m2 OVC
10:42 76.8 °F /  24.9 °C 69.8 °F /  21 °C 30.07in /  1018.2hPa NNE 2.3mph /  3.7km/h 2.3mph /  3.7km/h 79% 0.00in /  0mm WeatherDisplay:10.37 W/m2 OVC
10:47 77.0 °F /  25 °C 69.9 °F /  21.1 °C 30.07in /  1018.2hPa NNE 3.5mph /  5.6km/h 3.5mph /  5.6km/h 79% 0.00in /  0mm WeatherDisplay:10.37 W/m2 OVC
10:52 77.3 °F /  25.2 °C 69.9 °F /  21.1 °C 30.07in /  1018.2hPa NNE 2.3mph /  3.7km/h 2.3mph /  3.7km/h 78% 0.00in /  0mm WeatherDisplay:10.37 W/m2 OVC
10:57 78.0 °F /  25.6 °C 70.2 °F /  21.2 °C 30.07in /  1018.2hPa NNE 3.5mph /  5.6km/h 3.5mph /  5.6km/h 77% 0.00in /  0mm WeatherDisplay:10.37 W/m2 OVC
11:02 78.2 °F /  25.7 °C 70.0 °F /  21.1 °C 30.07in /  1018.2hPa North 5.0mph /  8km/h 5.0mph /  8km/h 76% 0.00in /  0mm WeatherDisplay:10.37 W/m2 OVC
11:07 78.3 °F /  25.7 °C 70.5 °F /  21.4 °C 30.07in /  1018.2hPa North 4.6mph /  7.4km/h 4.6mph /  7.4km/h 77% 0.00in /  0mm WeatherDisplay:10.37 W/m2 OVC
11:12 78.5 °F /  25.8 °C 70.3 °F /  21.3 °C 30.06in /  1017.8hPa North 4.0mph /  6.4km/h 4.0mph /  6.4km/h 76% 0.00in /  0mm WeatherDisplay:10.37 W/m2 OVC
11:17 78.2 °F /  25.7 °C 70.0 °F /  21.1 °C 30.06in /  1017.8hPa North 4.0mph /  6.4km/h 4.0mph /  6.4km/h 76% 0.00in /  0mm WeatherDisplay:10.37 W/m2 OVC
11:22 78.0 °F /  25.6 °C 71.3 °F /  21.8 °C 30.06in /  1017.8hPa North 3.5mph /  5.6km/h 3.5mph /  5.6km/h 80% 0.00in /  0mm WeatherDisplay:10.37 W/m2 OVC
11:27 77.7 °F /  25.4 °C 71.4 °F /  21.9 °C 30.06in /  1017.8hPa North 2.3mph /  3.7km/h 2.3mph /  3.7km/h 81% 0.00in /  0mm WeatherDisplay:10.37 W/m2 OVC
11:32 77.4 °F /  25.2 °C 70.7 °F /  21.5 °C 30.06in /  1017.8hPa North 3.5mph /  5.6km/h 3.5mph /  5.6km/h 80% 0.00in /  0mm WeatherDisplay:10.37 W/m2 OVC
11:37 77.2 °F /  25.1 °C 70.1 °F /  21.2 °C 30.05in /  1017.5hPa North 2.3mph /  3.7km/h 2.3mph /  3.7km/h 79% 0.00in /  0mm WeatherDisplay:10.37 W/m2 OVC
11:42 77.2 °F /  25.1 °C 70.5 °F /  21.4 °C 30.06in /  1017.8hPa North 1.2mph /  1.9km/h 1.2mph /  1.9km/h 80% 0.00in /  0mm WeatherDisplay:10.37 W/m2 OVC
11:47 77.0 °F /  25 °C 70.7 °F /  21.5 °C 30.06in /  1017.8hPa North 2.3mph /  3.7km/h 2.3mph /  3.7km/h 81% 0.00in /  0mm WeatherDisplay:10.37 W/m2 OVC
11:52 76.9 °F /  24.9 °C 70.6 °F /  21.4 °C 30.06in /  1017.8hPa North 2.3mph /  3.7km/h 2.3mph /  3.7km/h 81% 0.00in /  0mm WeatherDisplay:10.37 W/m2 OVC
11:57 76.8 °F /  24.9 °C 70.5 °F /  21.4 °C 30.05in /  1017.5hPa North 2.3mph /  3.7km/h 2.3mph /  3.7km/h 81% 0.00in /  0mm WeatherDisplay:10.37 W/m2 OVC
12:02 77.0 °F /  25 °C 70.3 °F /  21.3 °C 30.06in /  1017.8hPa North 2.3mph /  3.7km/h 2.3mph /  3.7km/h 80% 0.00in /  0mm WeatherDisplay:10.37 W/m2 OVC
12:07 77.2 °F /  25.1 °C 70.1 °F /  21.2 °C 30.06in /  1017.8hPa North 1.2mph /  1.9km/h 1.2mph /  1.9km/h 79% 0.00in /  0mm WeatherDisplay:10.37 W/m2 -RA
12:12 77.4 °F /  25.2 °C 70.0 °F /  21.1 °C 30.06in /  1017.8hPa North 2.3mph /  3.7km/h 2.3mph /  3.7km/h 78% 0.00in /  0mm WeatherDisplay:10.37 W/m2 -RA
12:17 77.7 °F /  25.4 °C 70.3 °F /  21.3 °C 30.06in /  1017.8hPa North 3.5mph /  5.6km/h 3.5mph /  5.6km/h 78% 0.00in /  0mm WeatherDisplay:10.37 W/m2 -RA
12:22 77.9 °F /  25.5 °C 70.1 °F /  21.2 °C 30.05in /  1017.5hPa North 3.0mph /  4.8km/h 3.0mph /  4.8km/h 77% 0.00in /  0mm WeatherDisplay:10.37 W/m2 -DZ
12:27 78.2 °F /  25.7 °C 70.0 °F /  21.1 °C 30.05in /  1017.5hPa North 3.5mph /  5.6km/h 3.5mph /  5.6km/h 76% 0.00in /  0mm WeatherDisplay:10.37 W/m2 -DZ
12:32 78.5 °F /  25.8 °C 70.3 °F /  21.3 °C 30.05in /  1017.5hPa North 2.3mph /  3.7km/h 2.3mph /  3.7km/h 76% 0.00in /  0mm WeatherDisplay:10.37 W/m2 -DZ
12:37 79.1 °F /  26.2 °C 70.5 °F /  21.4 °C 30.05in /  1017.5hPa SSW 3.5mph /  5.6km/h 3.5mph /  5.6km/h 75% 0.00in /  0mm WeatherDisplay:10.37 W/m2 -DZ
12:42 79.4 °F /  26.3 °C 70.7 °F /  21.5 °C 30.05in /  1017.5hPa SW 3.5mph /  5.6km/h 3.5mph /  5.6km/h 75% 0.00in /  0mm WeatherDisplay:10.37 W/m2 -RA
12:47 79.8 °F /  26.6 °C 71.5 °F /  21.9 °C 30.05in /  1017.5hPa SW 2.3mph /  3.7km/h 2.3mph /  3.7km/h 76% 0.00in /  0mm WeatherDisplay:10.37 W/m2 -RA
12:52 80.8 °F /  27.1 °C 71.3 °F /  21.8 °C 30.05in /  1017.5hPa South 3.5mph /  5.6km/h 3.5mph /  5.6km/h 73% 0.00in /  0mm WeatherDisplay:10.37 W/m2 -RA
12:57 81.4 °F /  27.4 °C 71.1 °F /  21.7 °C 30.04in /  1017.2hPa SE 3.5mph /  5.6km/h 3.5mph /  5.6km/h 71% 0.00in /  0mm WeatherDisplay:10.37 W/m2 -RA
13:02 81.6 °F /  27.6 °C 70.8 °F /  21.6 °C 30.04in /  1017.2hPa SW 4.0mph /  6.4km/h 4.0mph /  6.4km/h 70% 0.00in /  0mm WeatherDisplay:10.37 W/m2 OVC
13:07 81.3 °F /  27.4 °C 70.5 °F /  21.4 °C 30.04in /  1017.2hPa South 4.6mph /  7.4km/h 4.6mph /  7.4km/h 70% 0.00in /  0mm WeatherDisplay:10.37 W/m2 OVC
13:12 81.5 °F /  27.5 °C 70.7 °F /  21.5 °C 30.04in /  1017.2hPa SSW 5.8mph /  9.3km/h 5.8mph /  9.3km/h 70% 0.00in /  0mm WeatherDisplay:10.37 W/m2 OVC
13:17 81.8 °F /  27.7 °C 71.4 °F /  21.9 °C 30.04in /  1017.2hPa SSE 3.5mph /  5.6km/h 3.5mph /  5.6km/h 71% 0.00in /  0mm WeatherDisplay:10.37 W/m2 OVC
13:22 82.8 °F /  28.2 °C 72.0 °F /  22.2 °C 30.04in /  1017.2hPa West 3.5mph /  5.6km/h 3.5mph /  5.6km/h 70% 0.00in /  0mm WeatherDisplay:10.37 W/m2 OVC
13:27 82.5 °F /  28.1 °C 71.3 °F /  21.8 °C 30.04in /  1017.2hPa North 3.0mph /  4.8km/h 3.0mph /  4.8km/h 69% 0.00in /  0mm WeatherDisplay:10.37 W/m2 OVC
13:32 82.9 °F /  28.3 °C 71.6 °F /  22 °C 30.04in /  1017.2hPa SSW 4.6mph /  7.4km/h 4.6mph /  7.4km/h 69% 0.00in /  0mm WeatherDisplay:10.37 W/m2 OVC
13:37 83.6 °F /  28.7 °C 71.0 °F /  21.7 °C 30.03in /  1016.8hPa West 3.5mph /  5.6km/h 3.5mph /  5.6km/h 66% 0.00in /  0mm WeatherDisplay:10.37 W/m2 OVC
13:42 83.1 °F /  28.4 °C 71.0 °F /  21.7 °C 30.03in /  1016.8hPa SSW 3.5mph /  5.6km/h 3.5mph /  5.6km/h 67% 0.00in /  0mm WeatherDisplay:10.37 W/m2 OVC
13:47 83.1 °F /  28.4 °C 70.1 °F /  21.2 °C 30.03in /  1016.8hPa SW 5.0mph /  8km/h 5.0mph /  8km/h 65% 0.00in /  0mm WeatherDisplay:10.37 W/m2 OVC
13:52 82.9 °F /  28.3 °C 70.3 °F /  21.3 °C 30.03in /  1016.8hPa SSW 5.8mph /  9.3km/h 5.8mph /  9.3km/h 66% 0.00in /  0mm WeatherDisplay:10.37 W/m2 OVC
13:57 83.1 °F /  28.4 °C 70.1 °F /  21.2 °C 30.03in /  1016.8hPa SSE 3.5mph /  5.6km/h 3.5mph /  5.6km/h 65% 0.00in /  0mm WeatherDisplay:10.37 W/m2 OVC
14:02 83.7 °F /  28.7 °C 70.2 °F /  21.2 °C 30.02in /  1016.5hPa SSW 3.5mph /  5.6km/h 3.5mph /  5.6km/h 64% 0.00in /  0mm WeatherDisplay:10.37 W/m2 BKN
14:07 83.4 °F /  28.6 °C 70.4 °F /  21.3 °C 30.02in /  1016.5hPa NW 4.6mph /  7.4km/h 4.6mph /  7.4km/h 65% 0.00in /  0mm WeatherDisplay:10.37 W/m2 BKN
14:12 84.0 °F /  28.9 °C 69.5 °F /  20.8 °C 30.02in /  1016.5hPa WSW 3.5mph /  5.6km/h 3.5mph /  5.6km/h 62% 0.00in /  0mm WeatherDisplay:10.37 W/m2 BKN
14:17 84.8 °F /  29.3 °C 69.8 °F /  21 °C 30.02in /  1016.5hPa SW 5.0mph /  8km/h 5.0mph /  8km/h 61% 0.00in /  0mm WeatherDisplay:10.37 W/m2 BKN
14:22 84.5 °F /  29.2 °C 69.1 °F /  20.6 °C 30.02in /  1016.5hPa SSW 4.6mph /  7.4km/h 4.6mph /  7.4km/h 60% 0.00in /  0mm WeatherDisplay:10.37 W/m2 BKN
14:27 84.3 °F /  29.1 °C 69.3 °F /  20.7 °C 30.03in /  1016.8hPa SSE 3.5mph /  5.6km/h 3.5mph /  5.6km/h 61% 0.00in /  0mm WeatherDisplay:10.37 W/m2 BKN
14:32 84.1 °F /  28.9 °C 68.2 °F /  20.1 °C 30.02in /  1016.5hPa South 3.5mph /  5.6km/h 3.5mph /  5.6km/h 59% 0.00in /  0mm WeatherDisplay:10.37 W/m2 BKN
14:37 84.2 °F /  29 °C 69.3 °F /  20.7 °C 30.02in /  1016.5hPa SW 3.5mph /  5.6km/h 3.5mph /  5.6km/h 61% 0.00in /  0mm WeatherDisplay:10.37 W/m2 BKN
14:42 84.2 °F /  29 °C 69.7 °F /  20.9 °C 30.02in /  1016.5hPa SW 3.5mph /  5.6km/h 3.5mph /  5.6km/h 62% 0.00in /  0mm WeatherDisplay:10.37 W/m2 OVC
14:47 84.6 °F /  29.2 °C 70.1 °F /  21.2 °C 30.02in /  1016.5hPa North 4.0mph /  6.4km/h 4.0mph /  6.4km/h 62% 0.00in /  0mm WeatherDisplay:10.37 W/m2 OVC
14:52 84.6 °F /  29.2 °C 69.1 °F /  20.6 °C 30.02in /  1016.5hPa North 4.6mph /  7.4km/h 4.6mph /  7.4km/h 60% 0.00in /  0mm WeatherDisplay:10.37 W/m2 OVC
14:57 85.1 °F /  29.5 °C 70.1 °F /  21.2 °C 30.01in /  1016.1hPa West 3.5mph /  5.6km/h 3.5mph /  5.6km/h 61% 0.00in /  0mm WeatherDisplay:10.37 W/m2 OVC
15:02 85.2 °F /  29.6 °C 69.7 °F /  20.9 °C 30.01in /  1016.1hPa NNE 4.6mph /  7.4km/h 4.6mph /  7.4km/h 60% 0.00in /  0mm WeatherDisplay:10.37 W/m2 OVC
15:07 85.3 °F /  29.6 °C 70.3 °F /  21.3 °C 30.01in /  1016.1hPa SE 3.5mph /  5.6km/h 3.5mph /  5.6km/h 61% 0.00in /  0mm WeatherDisplay:10.37 W/m2 BKN
15:12 86.2 °F /  30.1 °C 69.7 °F /  20.9 °C 30.00in /  1015.8hPa West 3.5mph /  5.6km/h 3.5mph /  5.6km/h 58% 0.00in /  0mm WeatherDisplay:10.37 W/m2 BKN
15:17 86.5 °F /  30.3 °C 68.9 °F /  20.5 °C 30.00in /  1015.8hPa West 3.5mph /  5.6km/h 3.5mph /  5.6km/h 56% 0.00in /  0mm WeatherDisplay:10.37 W/m2 BKN
15:22 86.7 °F /  30.4 °C 70.1 °F /  21.2 °C 30.00in /  1015.8hPa NNW 3.5mph /  5.6km/h 3.5mph /  5.6km/h 58% 0.00in /  0mm WeatherDisplay:10.37 W/m2 SCT
15:27 86.8 °F /  30.4 °C 70.2 °F /  21.2 °C 30.00in /  1015.8hPa SW 3.5mph /  5.6km/h 3.5mph /  5.6km/h 58% 0.00in /  0mm WeatherDisplay:10.37 W/m2 SCT
15:32 86.1 °F /  30.1 °C 69.0 °F /  20.6 °C 30.00in /  1015.8hPa SSW 4.6mph /  7.4km/h 4.6mph /  7.4km/h 57% 0.00in /  0mm WeatherDisplay:10.37 W/m2 SCT
15:37 85.9 °F /  29.9 °C 68.3 °F /  20.2 °C 30.00in /  1015.8hPa WNW 5.8mph /  9.3km/h 5.8mph /  9.3km/h 56% 0.00in /  0mm WeatherDisplay:10.37 W/m2 SCT
15:42 86.0 °F /  30 °C 69.5 °F /  20.8 °C 30.00in /  1015.8hPa SE 3.5mph /  5.6km/h 3.5mph /  5.6km/h 58% 0.00in /  0mm WeatherDisplay:10.37 W/m2 BKN
15:47 87.1 °F /  30.6 °C 69.5 °F /  20.8 °C 29.99in /  1015.5hPa SE 3.5mph /  5.6km/h 3.5mph /  5.6km/h 56% 0.00in /  0mm WeatherDisplay:10.37 W/m2 BKN
15:52 88.2 °F /  31.2 °C 70.0 °F /  21.1 °C 29.99in /  1015.5hPa SW 3.5mph /  5.6km/h 3.5mph /  5.6km/h 55% 0.00in /  0mm WeatherDisplay:10.37 W/m2 BKN
15:57 88.1 °F /  31.2 °C 69.3 °F /  20.7 °C 29.99in /  1015.5hPa West 3.5mph /  5.6km/h 3.5mph /  5.6km/h 54% 0.00in /  0mm WeatherDisplay:10.37 W/m2 BKN
16:02 87.9 °F /  31.1 °C 68.6 °F /  20.3 °C 29.99in /  1015.5hPa SW 4.6mph /  7.4km/h 4.6mph /  7.4km/h 53% 0.00in /  0mm WeatherDisplay:10.37 W/m2 BKN
16:07 88.0 °F /  31.1 °C 68.7 °F /  20.4 °C 30.00in /  1015.8hPa SSW 6.0mph /  9.7km/h 6.0mph /  9.7km/h 53% 0.00in /  0mm WeatherDisplay:10.37 W/m2 OVC
16:12 87.5 °F /  30.8 °C 68.2 °F /  20.1 °C 29.99in /  1015.5hPa South 4.6mph /  7.4km/h 4.6mph /  7.4km/h 53% 0.00in /  0mm WeatherDisplay:10.37 W/m2 OVC
16:17 87.3 °F /  30.7 °C 69.1 °F /  20.6 °C 29.99in /  1015.5hPa WSW 2.3mph /  3.7km/h 2.3mph /  3.7km/h 55% 0.00in /  0mm WeatherDisplay:10.37 W/m2 OVC
16:22 87.5 °F /  30.8 °C 69.3 °F /  20.7 °C 29.99in /  1015.5hPa West 3.5mph /  5.6km/h 3.5mph /  5.6km/h 55% 0.00in /  0mm WeatherDisplay:10.37 W/m2 OVC
16:27 87.0 °F /  30.6 °C 69.9 °F /  21.1 °C 29.99in /  1015.5hPa West 3.5mph /  5.6km/h 3.5mph /  5.6km/h 57% 0.00in /  0mm WeatherDisplay:10.37 W/m2 OVC
16:32 86.6 °F /  30.3 °C 69.0 °F /  20.6 °C 29.99in /  1015.5hPa South 3.5mph /  5.6km/h 3.5mph /  5.6km/h 56% 0.00in /  0mm WeatherDisplay:10.37 W/m2 BKN
16:37 86.5 °F /  30.3 °C 69.9 °F /  21.1 °C 29.99in /  1015.5hPa West 2.3mph /  3.7km/h 2.3mph /  3.7km/h 58% 0.00in /  0mm WeatherDisplay:10.37 W/m2 BKN
16:42 86.6 °F /  30.3 °C 70.0 °F /  21.1 °C 29.99in /  1015.5hPa SW 3.0mph /  4.8km/h 3.0mph /  4.8km/h 58% 0.00in /  0mm WeatherDisplay:10.37 W/m2 BKN
16:47 86.5 °F /  30.3 °C 69.4 °F /  20.8 °C 29.99in /  1015.5hPa SSW 5.0mph /  8km/h 5.0mph /  8km/h 57% 0.00in /  0mm WeatherDisplay:10.37 W/m2 BKN
16:52 86.1 °F /  30.1 °C 70.1 °F /  21.2 °C 29.98in /  1015.1hPa SSW 2.3mph /  3.7km/h 2.3mph /  3.7km/h 59% 0.00in /  0mm WeatherDisplay:10.37 W/m2 BKN
16:57 86.2 °F /  30.1 °C 70.2 °F /  21.2 °C 29.98in /  1015.1hPa NW 3.5mph /  5.6km/h 3.5mph /  5.6km/h 59% 0.00in /  0mm WeatherDisplay:10.37 W/m2 BKN
17:02 86.0 °F /  30 °C 69.5 °F /  20.8 °C 29.98in /  1015.1hPa West 3.5mph /  5.6km/h 3.5mph /  5.6km/h 58% 0.00in /  0mm WeatherDisplay:10.37 W/m2 BKN
17:07 85.6 °F /  29.8 °C 69.6 °F /  20.9 °C 29.98in /  1015.1hPa WNW 2.3mph /  3.7km/h 2.3mph /  3.7km/h 59% 0.00in /  0mm WeatherDisplay:10.37 W/m2 OVC
17:12 85.7 °F /  29.8 °C 69.7 °F /  20.9 °C 29.98in /  1015.1hPa Calm     59% 0.00in /  0mm WeatherDisplay:10.37 W/m2 OVC
17:17 85.8 °F /  29.9 °C 69.8 °F /  21 °C 29.98in /  1015.1hPa West 3.0mph /  4.8km/h 3.0mph /  4.8km/h 59% 0.00in /  0mm WeatherDisplay:10.37 W/m2 OVC
17:22 85.1 °F /  29.5 °C 69.6 °F /  20.9 °C 29.98in /  1015.1hPa WSW 5.0mph /  8km/h 5.0mph /  8km/h 60% 0.00in /  0mm WeatherDisplay:10.37 W/m2 OVC
17:27 83.3 °F /  28.5 °C 70.7 °F /  21.5 °C 29.98in /  1015.1hPa ESE 11.5mph /  18.5km/h 11.5mph /  18.5km/h 66% 0.00in /  0mm WeatherDisplay:10.37 W/m2 OVC
17:32 82.5 °F /  28.1 °C 70.8 °F /  21.6 °C 29.99in /  1015.5hPa South 3.0mph /  4.8km/h 3.0mph /  4.8km/h 68% 0.00in /  0mm WeatherDisplay:10.37 W/m2 OVC
17:37 82.2 °F /  27.9 °C 70.5 °F /  21.4 °C 29.99in /  1015.5hPa ESE 4.0mph /  6.4km/h 4.0mph /  6.4km/h 68% 0.00in /  0mm WeatherDisplay:10.37 W/m2 OVC
17:42 82.1 °F /  27.8 °C 70.9 °F /  21.6 °C 29.98in /  1015.1hPa SE 3.5mph /  5.6km/h 3.5mph /  5.6km/h 69% 0.00in /  0mm WeatherDisplay:10.37 W/m2 OVC
17:47 82.2 °F /  27.9 °C 71.4 °F /  21.9 °C 29.98in /  1015.1hPa ENE 4.0mph /  6.4km/h 4.0mph /  6.4km/h 70% 0.00in /  0mm WeatherDisplay:10.37 W/m2 OVC
17:52 82.2 °F /  27.9 °C 71.0 °F /  21.7 °C 29.98in /  1015.1hPa ENE 3.5mph /  5.6km/h 3.5mph /  5.6km/h 69% 0.00in /  0mm WeatherDisplay:10.37 W/m2 OVC
17:57 82.3 °F /  27.9 °C 71.1 °F /  21.7 °C 29.98in /  1015.1hPa ENE 3.0mph /  4.8km/h 3.0mph /  4.8km/h 69% 0.00in /  0mm WeatherDisplay:10.37 W/m2 OVC
18:02 82.3 °F /  27.9 °C 71.1 °F /  21.7 °C 29.98in /  1015.1hPa ENE 2.3mph /  3.7km/h 2.3mph /  3.7km/h 69% 0.00in /  0mm WeatherDisplay:10.37 W/m2 OVC
18:07 82.2 °F /  27.9 °C 71.0 °F /  21.7 °C 29.98in /  1015.1hPa ESE 2.0mph /  3.2km/h 2.0mph /  3.2km/h 69% 0.00in /  0mm WeatherDisplay:10.37 W/m2 OVC
18:12 82.2 °F /  27.9 °C 71.4 °F /  21.9 °C 29.98in /  1015.1hPa NE 3.5mph /  5.6km/h 3.5mph /  5.6km/h 70% 0.00in /  0mm WeatherDisplay:10.37 W/m2 OVC
18:17 81.8 °F /  27.7 °C 71.8 °F /  22.1 °C 29.98in /  1015.1hPa NE 3.5mph /  5.6km/h 3.5mph /  5.6km/h 72% 0.00in /  0mm WeatherDisplay:10.37 W/m2 OVC
18:22 81.5 °F /  27.5 °C 71.6 °F /  22 °C 29.98in /  1015.1hPa NNE 3.5mph /  5.6km/h 3.5mph /  5.6km/h 72% 0.00in /  0mm WeatherDisplay:10.37 W/m2 -RA
18:27 81.2 °F /  27.3 °C 71.3 °F /  21.8 °C 29.97in /  1014.8hPa NNE 4.0mph /  6.4km/h 4.0mph /  6.4km/h 72% 0.00in /  0mm WeatherDisplay:10.37 W/m2 -RA
18:32 81.0 °F /  27.2 °C 71.5 °F /  21.9 °C 29.97in /  1014.8hPa NNE 6.0mph /  9.7km/h 6.0mph /  9.7km/h 73% 0.00in /  0mm WeatherDisplay:10.37 W/m2 -RA
18:37 80.8 °F /  27.1 °C 71.7 °F /  22.1 °C 29.97in /  1014.8hPa NNE 5.0mph /  8km/h 5.0mph /  8km/h 74% 0.00in /  0mm WeatherDisplay:10.37 W/m2 -RA
18:42 80.5 °F /  26.9 °C 71.8 °F /  22.1 °C 29.97in /  1014.8hPa NNE 4.6mph /  7.4km/h 4.6mph /  7.4km/h 75% 0.00in /  0mm WeatherDisplay:10.37 W/m2 SCT
18:47 80.3 °F /  26.8 °C 71.6 °F /  22 °C 29.98in /  1015.1hPa NNE 3.5mph /  5.6km/h 3.5mph /  5.6km/h 75% 0.00in /  0mm WeatherDisplay:10.37 W/m2 SCT
18:52 79.8 °F /  26.6 °C 71.1 °F /  21.7 °C 29.97in /  1014.8hPa NNE 8.1mph /  13km/h 8.1mph /  13km/h 75% 0.00in /  0mm WeatherDisplay:10.37 W/m2 SCT
18:57 79.6 °F /  26.4 °C 71.3 °F /  21.8 °C 29.97in /  1014.8hPa NNE 5.8mph /  9.3km/h 5.8mph /  9.3km/h 76% 0.00in /  0mm WeatherDisplay:10.37 W/m2 SCT
19:02 79.4 °F /  26.3 °C 71.1 °F /  21.7 °C 29.97in /  1014.8hPa NNE 3.5mph /  5.6km/h 3.5mph /  5.6km/h 76% 0.00in /  0mm WeatherDisplay:10.37 W/m2 CLR
19:07 79.3 °F /  26.3 °C 71.4 °F /  21.9 °C 29.98in /  1015.1hPa NNE 3.5mph /  5.6km/h 3.5mph /  5.6km/h 77% 0.00in /  0mm WeatherDisplay:10.37 W/m2 CLR
19:12 79.2 °F /  26.2 °C 71.3 °F /  21.8 °C 29.98in /  1015.1hPa NNE 3.5mph /  5.6km/h 3.5mph /  5.6km/h 77% 0.00in /  0mm WeatherDisplay:10.37 W/m2 CLR
19:17 79.1 °F /  26.2 °C 71.6 °F /  22 °C 29.98in /  1015.1hPa NNE 3.5mph /  5.6km/h 3.5mph /  5.6km/h 78% 0.00in /  0mm WeatherDisplay:10.37 W/m2 CLR
19:22 78.9 °F /  26.1 °C 71.4 °F /  21.9 °C 29.98in /  1015.1hPa NNE 5.0mph /  8km/h 5.0mph /  8km/h 78% 0.00in /  0mm WeatherDisplay:10.37 W/m2 SCT
19:27 78.8 °F /  26 °C 71.3 °F /  21.8 °C 29.98in /  1015.1hPa NNE 3.5mph /  5.6km/h 3.5mph /  5.6km/h 78% 0.00in /  0mm WeatherDisplay:10.37 W/m2 SCT
19:32 78.6 °F /  25.9 °C 71.5 °F /  21.9 °C 29.98in /  1015.1hPa NNE 3.5mph /  5.6km/h 3.5mph /  5.6km/h 79% 0.00in /  0mm WeatherDisplay:10.37 W/m2 SCT
19:34 78.6 °F /  25.9 °C 71.5 °F /  21.9 °C 29.98in /  1015.1hPa NNE 3.5mph /  5.6km/h 3.5mph /  5.6km/h 79% 0.00in /  0mm WeatherDisplay:10.37 W/m2 SCT
19:39 78.5 °F /  25.8 °C 71.4 °F /  21.9 °C 29.98in /  1015.1hPa NNE 2.3mph /  3.7km/h 2.3mph /  3.7km/h 79% 0.00in /  0mm WeatherDisplay:10.37 W/m2 SCT
19:44 78.4 °F /  25.8 °C 71.3 °F /  21.8 °C 29.98in /  1015.1hPa NNE 2.3mph /  3.7km/h 2.3mph /  3.7km/h 79% 0.00in /  0mm WeatherDisplay:10.37 W/m2 BKN
19:49 78.2 °F /  25.7 °C 71.1 °F /  21.7 °C 29.98in /  1015.1hPa NE 4.6mph /  7.4km/h 4.6mph /  7.4km/h 79% 0.00in /  0mm WeatherDisplay:10.37 W/m2 BKN
19:50 78.2 °F /  25.7 °C 71.1 °F /  21.7 °C 29.98in /  1015.1hPa NE 4.6mph /  7.4km/h 4.6mph /  7.4km/h 79% 0.00in /  0mm WeatherDisplay:10.37 W/m2 BKN
19:55 78.1 °F /  25.6 °C 71.4 °F /  21.9 °C 29.98in /  1015.1hPa NE 2.3mph /  3.7km/h 2.3mph /  3.7km/h 80% 0.00in /  0mm WeatherDisplay:10.37 W/m2 BKN
20:00 77.9 °F /  25.5 °C 71.2 °F /  21.8 °C 29.99in /  1015.5hPa NE 2.3mph /  3.7km/h 2.3mph /  3.7km/h 80% 0.00in /  0mm WeatherDisplay:10.37 W/m2 BKN
20:05 77.7 °F /  25.4 °C 71.0 °F /  21.7 °C 29.99in /  1015.5hPa NE 2.3mph /  3.7km/h 2.3mph /  3.7km/h 80% 0.00in /  0mm WeatherDisplay:10.37 W/m2 OVC
20:10 77.6 °F /  25.3 °C 70.9 °F /  21.6 °C 29.99in /  1015.5hPa ENE 2.3mph /  3.7km/h 2.3mph /  3.7km/h 80% 0.00in /  0mm WeatherDisplay:10.37 W/m2 OVC
20:15 77.5 °F /  25.3 °C 70.8 °F /  21.6 °C 29.99in /  1015.5hPa ENE 2.3mph /  3.7km/h 2.3mph /  3.7km/h 80% 0.00in /  0mm WeatherDisplay:10.37 W/m2 OVC
20:20 77.3 °F /  25.2 °C 70.6 °F /  21.4 °C 29.99in /  1015.5hPa ENE 1.2mph /  1.9km/h 1.2mph /  1.9km/h 80% 0.00in /  0mm WeatherDisplay:10.37 W/m2 OVC
20:25 77.1 °F /  25.1 °C 70.4 °F /  21.3 °C 29.98in /  1015.1hPa ENE 2.3mph /  3.7km/h 2.3mph /  3.7km/h 80% 0.00in /  0mm WeatherDisplay:10.37 W/m2 OVC
20:30 77.0 °F /  25 °C 70.7 °F /  21.5 °C 29.98in /  1015.1hPa ENE 1.2mph /  1.9km/h 1.2mph /  1.9km/h 81% 0.00in /  0mm WeatherDisplay:10.37 W/m2 OVC
20:35 76.8 °F /  24.9 °C 70.5 °F /  21.4 °C 29.98in /  1015.1hPa ENE 2.3mph /  3.7km/h 2.3mph /  3.7km/h 81% 0.00in /  0mm WeatherDisplay:10.37 W/m2 OVC
20:40 76.7 °F /  24.8 °C 70.4 °F /  21.3 °C 29.98in /  1015.1hPa Calm     81% 0.00in /  0mm WeatherDisplay:10.37 W/m2 OVC
20:45 76.6 °F /  24.8 °C 70.3 °F /  21.3 °C 29.99in /  1015.5hPa Calm     81% 0.00in /  0mm WeatherDisplay:10.37 W/m2 SCT
20:50 76.4 °F /  24.7 °C 70.5 °F /  21.4 °C 29.99in /  1015.5hPa Calm     82% 0.00in /  0mm WeatherDisplay:10.37 W/m2 SCT
20:55 76.2 °F /  24.6 °C 70.3 °F /  21.3 °C 29.99in /  1015.5hPa Calm     82% 0.00in /  0mm WeatherDisplay:10.37 W/m2 SCT
21:00 76.0 °F /  24.4 °C 70.1 °F /  21.2 °C 29.99in /  1015.5hPa Calm     82% 0.00in /  0mm WeatherDisplay:10.37 W/m2 SCT
21:05 75.9 °F /  24.4 °C 70.0 °F /  21.1 °C 29.99in /  1015.5hPa ENE 1.2mph /  1.9km/h 1.2mph /  1.9km/h 82% 0.00in /  0mm WeatherDisplay:10.37 W/m2 BKN
21:10 75.8 °F /  24.3 °C 70.2 °F /  21.2 °C 29.98in /  1015.1hPa ENE 1.2mph /  1.9km/h 1.2mph /  1.9km/h 83% 0.00in /  0mm WeatherDisplay:10.37 W/m2 BKN
21:15 75.7 °F /  24.3 °C 70.1 °F /  21.2 °C 29.99in /  1015.5hPa ENE 2.3mph /  3.7km/h 2.3mph /  3.7km/h 83% 0.00in /  0mm WeatherDisplay:10.37 W/m2 BKN
21:20 75.6 °F /  24.2 °C 70.0 °F /  21.1 °C 29.98in /  1015.1hPa ENE 1.2mph /  1.9km/h 1.2mph /  1.9km/h 83% 0.00in /  0mm WeatherDisplay:10.37 W/m2 BKN
21:25 75.5 °F /  24.2 °C 69.9 °F /  21.1 °C 29.99in /  1015.5hPa Calm     83% 0.00in /  0mm WeatherDisplay:10.37 W/m2 OVC
21:26 75.5 °F /  24.2 °C 69.9 °F /  21.1 °C 29.99in /  1015.5hPa ENE 1.0mph /  1.6km/h 1.0mph /  1.6km/h 83% 0.00in /  0mm WeatherDisplay:10.37 W/m2 OVC
21:31 75.4 °F /  24.1 °C 69.8 °F /  21 °C 29.99in /  1015.5hPa ENE 1.2mph /  1.9km/h 1.2mph /  1.9km/h 83% 0.00in /  0mm WeatherDisplay:10.37 W/m2 OVC
21:36 75.3 °F /  24.1 °C 70.1 °F /  21.2 °C 29.99in /  1015.5hPa ENE 2.3mph /  3.7km/h 2.3mph /  3.7km/h 84% 0.00in /  0mm WeatherDisplay:10.37 W/m2 OVC
21:41 75.2 °F /  24 °C 70.0 °F /  21.1 °C 30.00in /  1015.8hPa Calm     84% 0.00in /  0mm WeatherDisplay:10.37 W/m2 OVC
21:46 75.1 °F /  23.9 °C 70.2 °F /  21.2 °C 30.00in /  1015.8hPa Calm     85% 0.01in /  0.25mm WeatherDisplay:10.37 W/m2 RA
21:51 74.7 °F /  23.7 °C 70.5 °F /  21.4 °C 30.00in /  1015.8hPa Calm     87% 0.02in /  0.51mm WeatherDisplay:10.37 W/m2 RA
21:56 74.4 °F /  23.6 °C 70.2 °F /  21.2 °C 30.01in /  1016.1hPa Calm     87% 0.02in /  0.51mm WeatherDisplay:10.37 W/m2 RA
22:01 74.3 °F /  23.5 °C 70.5 °F /  21.4 °C 30.01in /  1016.1hPa Calm     88% 0.04in /  1.02mm WeatherDisplay:10.37 W/m2 RA
22:06 73.8 °F /  23.2 °C 70.3 °F /  21.3 °C 30.00in /  1015.8hPa ENE 2.3mph /  3.7km/h 2.3mph /  3.7km/h 89% 0.04in /  1.02mm WeatherDisplay:10.37 W/m2 -RA
22:11 73.4 °F /  23 °C 69.9 °F /  21.1 °C 30.00in /  1015.8hPa ENE 1.2mph /  1.9km/h 1.2mph /  1.9km/h 89% 0.04in /  1.02mm WeatherDisplay:10.37 W/m2 -RA
22:16 73.2 °F /  22.9 °C 70.0 °F /  21.1 °C 30.00in /  1015.8hPa ENE 1.2mph /  1.9km/h 1.2mph /  1.9km/h 90% 0.04in /  1.02mm WeatherDisplay:10.37 W/m2 -RA
22:21 73.0 °F /  22.8 °C 69.9 °F /  21.1 °C 30.00in /  1015.8hPa Calm     90% 0.04in /  1.02mm WeatherDisplay:10.37 W/m2 -RA
22:26 72.9 °F /  22.7 °C 69.8 °F /  21 °C 30.00in /  1015.8hPa Calm     90% 0.04in /  1.02mm WeatherDisplay:10.37 W/m2 -DZ
22:31 72.8 °F /  22.7 °C 69.7 °F /  20.9 °C 30.00in /  1015.8hPa ENE 1.0mph /  1.6km/h   90% 0.04in /  1.02mm WeatherDisplay:10.37 W/m2 -DZ
22:36 72.7 °F /  22.6 °C 69.9 °F /  21.1 °C 30.00in /  1015.8hPa Calm     91% 0.04in /  1.02mm WeatherDisplay:10.37 W/m2 -DZ
22:41 72.6 °F /  22.6 °C 69.8 °F /  21 °C 30.00in /  1015.8hPa Calm     91% 0.04in /  1.02mm WeatherDisplay:10.37 W/m2 -DZ
22:46 72.5 °F /  22.5 °C 69.7 °F /  20.9 °C 30.01in /  1016.1hPa Calm     91% 0.03in /  0.76mm WeatherDisplay:10.37 W/m2 OVC
22:51 72.5 °F /  22.5 °C 69.7 °F /  20.9 °C 30.01in /  1016.1hPa Calm     91% 0.03in /  0.76mm WeatherDisplay:10.37 W/m2 OVC
22:56 72.4 °F /  22.4 °C 69.6 °F /  20.9 °C 30.00in /  1015.8hPa ENE 1.2mph /  1.9km/h 1.2mph /  1.9km/h 91% 0.02in /  0.51mm WeatherDisplay:10.37 W/m2 OVC
23:01 72.3 °F /  22.4 °C 69.5 °F /  20.8 °C 30.00in /  1015.8hPa Calm     91% 0.01in /  0.25mm WeatherDisplay:10.37 W/m2 OVC
23:06 72.3 °F /  22.4 °C 69.5 °F /  20.8 °C 30.01in /  1016.1hPa ENE 1.0mph /  1.6km/h 1.0mph /  1.6km/h 91% 0.00in /  0mm WeatherDisplay:10.37 W/m2 OVC
23:11 72.2 °F /  22.3 °C 69.4 °F /  20.8 °C 30.01in /  1016.1hPa Calm     91% 0.00in /  0mm WeatherDisplay:10.37 W/m2 OVC
23:16 72.1 °F /  22.3 °C 69.3 °F /  20.7 °C 30.01in /  1016.1hPa Calm     91% 0.00in /  0mm WeatherDisplay:10.37 W/m2 OVC
23:21 72.1 °F /  22.3 °C 69.3 °F /  20.7 °C 30.01in /  1016.1hPa ENE 1.2mph /  1.9km/h   91% 0.00in /  0mm WeatherDisplay:10.37 W/m2 OVC
23:23 72.1 °F /  22.3 °C 69.3 °F /  20.7 °C 29.89in /  1012.1hPa Calm     91% 0.00in /  0mm WeatherDisplay:10.37 W/m2 OVC
23:28 72.1 °F /  22.3 °C 69.6 °F /  20.9 °C 30.01in /  1016.1hPa ENE 1.2mph /  1.9km/h 1.2mph /  1.9km/h 92% 0.00in /  0mm WeatherDisplay:10.37 W/m2 OVC
23:33 72.2 °F /  22.3 °C 69.4 °F /  20.8 °C 30.00in /  1015.8hPa ENE 2.3mph /  3.7km/h 2.3mph /  3.7km/h 91% 0.00in /  0mm WeatherDisplay:10.37 W/m2 OVC
23:38 72.1 °F /  22.3 °C 69.3 °F /  20.7 °C 30.00in /  1015.8hPa ENE 2.3mph /  3.7km/h 2.3mph /  3.7km/h 91% 0.00in /  0mm WeatherDisplay:10.37 W/m2 OVC
23:43 72.0 °F /  22.2 °C 69.2 °F /  20.7 °C 30.01in /  1016.1hPa Calm     91% 0.00in /  0mm WeatherDisplay:10.37 W/m2 OVC
23:48 72.0 °F /  22.2 °C 69.2 °F /  20.7 °C 30.01in /  1016.1hPa ENE 1.2mph /  1.9km/h   91% 0.00in /  0mm WeatherDisplay:10.37 W/m2 OVC
23:53 72.0 °F /  22.2 °C 69.5 °F /  20.8 °C 30.01in /  1016.1hPa Calm     92% 0.00in /  0mm WeatherDisplay:10.37 W/m2 OVC
23:58 72.0 °F /  22.2 °C 69.5 °F /  20.8 °C 30.01in /  1016.1hPa Calm     92% 0.00in /  0mm WeatherDisplay:10.37 W/m2 OVC
Smyth Weather
Compliments of Weather Underground - 3 mb